| time (UTC) | temp C | wind direction | speed KPH | gust KPH | rain 1hr cm | rain 24hr cm | rain mn cm | humidity % | barometer mb |
| 20260510043042 | 24 | 189 | 3.2 | 11.3 | 0.00 | 0.15 | 0.15 | 84 | 1010.1 |
| 20260510041534 | 24 | 169 | 1.6 | 9.7 | 0.00 | 0.15 | 0.15 | 84 | 1010.4 |
| 20260510040040 | 24 | 229 | 1.6 | 6.4 | 0.00 | 0.15 | 0.15 | 85 | 1010.1 |
| 20260510034631 | 25 | 200 | 3.2 | 12.9 | 0.00 | 0.15 | 0.15 | 85 | 1009.9 |
| 20260510033113 | 25 | 165 | 3.2 | 16.1 | 0.00 | 0.15 | 0.15 | 84 | 1010.3 |
| 20260510031559 | 25 | 212 | 3.2 | 14.5 | 0.00 | 0.15 | 0.15 | 83 | 1010.2 |
| 20260510030111 | 26 | 59 | 6.4 | 17.7 | 0.00 | 0.15 | 0.15 | 81 | 1010.1 |
| 20260510024552 | 26 | 117 | 1.6 | 9.7 | 0.00 | 0.15 | 0.15 | 72 | 1009.7 |
| 20260510023050 | 25 | 204 | 1.6 | 12.9 | 0.00 | 0.15 | 0.15 | 73 | 1009.1 |
| 20260510021550 | 25 | 182 | 1.6 | 9.7 | 0.00 | 0.15 | 0.15 | 79 | 1008.8 |
| 20260510020047 | 24 | 236 | 0.0 | 6.4 | 0.00 | 0.15 | 0.15 | 82 | 1008.4 |
| 20260510014550 | 24 | 236 | 0.0 | 1.6 | 0.00 | 0.15 | 0.15 | 81 | 1007.9 |
| 20260510013046 | 25 | 236 | 0.0 | 1.6 | 0.00 | 0.15 | 0.15 | 81 | 1007.6 |
| 20260510011546 | 25 | 236 | 0.0 | 1.6 | 0.00 | 0.15 | 0.15 | 79 | 1007.5 |
| 20260510010022 | 25 | 236 | 0.0 | 3.2 | 0.00 | 0.15 | 0.15 | 79 | 1007.2 |
| 20260510004515 | 25 | 236 | 0.0 | 4.8 | 0.00 | 0.15 | 0.15 | 78 | 1006.9 |
| 20260510003050 | 25 | 236 | 0.0 | 6.4 | 0.00 | 0.15 | 0.15 | 77 | 1007.1 |
| 20260510001543 | 26 | 242 | 0.0 | 6.4 | 0.03 | 0.15 | 0.15 | 81 | 1007.2 |
| 20260510000049 | 26 | 25 | 0.0 | 4.8 | 0.05 | 0.15 | 0.15 | 82 | 1006.9 |
| 20260509234552 | 26 | 25 | 0.0 | 0.0 | 0.15 | 0.15 | 0.15 | 82 | 1006.4 |
| 20260509233043 | 27 | 25 | 1.6 | 3.2 | 0.15 | 0.15 | 0.15 | 80 | 1006.4 |
| 20260509231539 | 28 | 24 | 1.6 | 4.8 | 0.13 | 0.13 | 0.13 | 75 | 1006.5 |
| 20260509230039 | 31 | 22 | 0.0 | 3.2 | 0.08 | 0.08 | 0.08 | 67 | 1006.4 |
| 20260509224535 | 31 | 21 | 0.0 | 1.6 | 0.00 | 0.00 | 0.00 | 64 | 1006.2 |
| 20260509223040 | 31 | 21 | 1.6 | 4.8 | 0.00 | 0.00 | 0.00 | 63 | 1006.1 |
| 20260509221537 | 32 | 20 | 0.0 | 3.2 | 0.00 | 0.00 | 0.00 | 62 | 1006.0 |
| 20260509220030 | 32 | 20 | 0.0 | 4.8 | 0.00 | 0.00 | 0.00 | 62 | 1006.0 |
| 20260509214529 | 31 | 20 | 0.0 | 4.8 | 0.00 | 0.00 | 0.00 | 64 | 1006.1 |
| 20260509213032 | 32 | 17 | 1.6 | 8.0 | 0.00 | 0.00 | 0.00 | 62 | 1006.1 |
| 20260509211527 | 32 | 71 | 0.0 | 4.8 | 0.00 | 0.00 | 0.00 | 63 | 1006.1 |
| 20260509210022 | 31 | 65 | 1.6 | 9.7 | 0.00 | 0.00 | 0.00 | 65 | 1006.4 |
| 20260509204520 | 31 | 75 | 3.2 | 8.0 | 0.00 | 0.00 | 0.00 | 65 | 1006.6 |
| 20260509203020 | 31 | 47 | 3.2 | 4.8 | 0.00 | 0.00 | 0.00 | 65 | 1006.7 |
| 20260509201517 | 31 | 318 | 3.2 | 9.7 | 0.00 | 0.00 | 0.00 | 65 | 1006.9 |
| 20260509200057 | 31 | 16 | 3.2 | 8.0 | 0.00 | 0.00 | 0.00 | 64 | 1006.9 |
| 20260509194542 | 31 | 51 | 1.6 | 8.0 | 0.00 | 0.03 | 0.00 | 65 | 1007.2 |
| 20260509193051 | 31 | 82 | 3.2 | 6.4 | 0.00 | 0.03 | 0.00 | 66 | 1007.3 |
| 20260509191536 | 30 | 192 | 3.2 | 11.3 | 0.00 | 0.03 | 0.00 | 68 | 1007.3 |
| 20260509190035 | 30 | 307 | 1.6 | 6.4 | 0.00 | 0.03 | 0.00 | 67 | 1007.6 |
| 20260509184540 | 30 | 302 | 1.6 | 6.4 | 0.00 | 0.08 | 0.00 | 69 | 1007.7 |
| 20260509183025 | 30 | 204 | 0.0 | 3.2 | 0.00 | 0.08 | 0.00 | 70 | 1007.8 |
| 20260509181523 | 29 | 200 | 1.6 | 14.5 | 0.00 | 0.08 | 0.00 | 71 | 1008.1 |
| 20260509180020 | 29 | 311 | 1.6 | 9.7 | 0.00 | 0.08 | 0.00 | 72 | 1008.5 |
| 20260509174517 | 28 | 199 | 6.4 | 14.5 | 0.00 | 0.08 | 0.00 | 73 | 1008.7 |
| 20260509173011 | 28 | 176 | 0.0 | 9.7 | 0.00 | 0.08 | 0.00 | 78 | 1008.8 |
| 20260509171512 | 27 | 180 | 4.8 | 16.1 | 0.00 | 0.08 | 0.00 | 79 | 1008.8 |
| 20260509170005 | 27 | 187 | 3.2 | 9.7 | 0.00 | 0.08 | 0.00 | 80 | 1009.2 |
| 20260509164504 | 26 | 24 | 0.0 | 3.2 | 0.00 | 0.08 | 0.00 | 82 | 1009.2 |
| 20260509163115 | 26 | 24 | 0.0 | 1.6 | 0.00 | 0.08 | 0.00 | 83 | 1009.1 |
| 20260509161556 | 26 | 25 | 0.0 | 3.2 | 0.00 | 0.08 | 0.00 | 83 | 1009.2 |
| 20260509160054 | 26 | 25 | 0.0 | 4.8 | 0.00 | 0.08 | 0.00 | 85 | 1009.3 |
| 20260509154552 | 25 | 18 | 0.0 | 4.8 | 0.00 | 0.08 | 0.00 | 87 | 1009.1 |
| 20260509153049 | 25 | 274 | 1.6 | 3.2 | 0.00 | 0.08 | 0.00 | 89 | 1008.9 |
| 20260509151544 | 25 | 238 | 0.0 | 0.0 | 0.00 | 0.08 | 0.00 | 90 | 1009.2 |
| 20260509150055 | 24 | 238 | 0.0 | 4.8 | 0.00 | 0.08 | 0.00 | 91 | 1009.1 |
| 20260509144615 | 24 | 198 | 0.0 | 1.6 | 0.00 | 0.08 | 0.08 | 93 | 1008.7 |
| 20260509143044 | 24 | 196 | 0.0 | 3.2 | 0.00 | 0.08 | 0.08 | 93 | 1008.7 |
| 20260509141541 | 23 | 196 | 0.0 | 1.6 | 0.00 | 0.08 | 0.08 | 94 | 1008.5 |
| 20260509140034 | 23 | 194 | 0.0 | 6.4 | 0.00 | 0.08 | 0.08 | 94 | 1008.4 |
| 20260509134533 | 23 | 194 | 0.0 | 6.4 | 0.00 | 0.08 | 0.08 | 94 | 1008.6 |
| 20260509133034 | 23 | 188 | 0.0 | 3.2 | 0.00 | 0.08 | 0.08 | 94 | 1008.9 |
| 20260509131537 | 23 | 187 | 0.0 | 1.6 | 0.00 | 0.08 | 0.08 | 95 | 1009.4 |
| 20260509130026 | 23 | 187 | 0.0 | 4.8 | 0.00 | 0.08 | 0.08 | 95 | 1009.2 |
| 20260509124529 | 23 | 186 | 0.0 | 1.6 | 0.00 | 0.08 | 0.08 | 95 | 1009.1 |
| 20260509123025 | 23 | 186 | 0.0 | 3.2 | 0.00 | 0.08 | 0.08 | 94 | 1008.9 |
| 20260509121527 | 23 | 185 | 0.0 | 0.0 | 0.00 | 0.08 | 0.08 | 94 | 1009.0 |
| 20260509120021 | 23 | 185 | 0.0 | 0.0 | 0.00 | 0.08 | 0.08 | 94 | 1008.6 |
| 20260509114521 | 23 | 185 | 0.0 | 0.0 | 0.00 | 0.08 | 0.08 | 94 | 1008.7 |
| 20260509113021 | 23 | 185 | 0.0 | 3.2 | 0.00 | 0.08 | 0.08 | 94 | 1008.8 |
| 20260509111519 | 23 | 187 | 0.0 | 0.0 | 0.00 | 0.08 | 0.08 | 94 | 1008.9 |
| 20260509110018 | 23 | 187 | 0.0 | 0.0 | 0.00 | 0.08 | 0.08 | 94 | 1008.7 |
| 20260509104530 | 23 | 187 | 0.0 | 0.0 | 0.00 | 0.08 | 0.08 | 93 | 1008.3 |
| 20260509103017 | 23 | 187 | 0.0 | 1.6 | 0.00 | 0.08 | 0.08 | 93 | 1008.2 |
| 20260509101550 | 23 | 187 | 0.0 | 0.0 | 0.00 | 0.08 | 0.08 | 93 | 1008.1 |
| 20260509100054 | 23 | 187 | 0.0 | 0.0 | 0.00 | 0.08 | 0.08 | 93 | 1007.9 |
| 20260509094549 | 23 | 187 | 0.0 | 0.0 | 0.00 | 0.08 | 0.08 | 93 | 1007.9 |
| 20260509093044 | 23 | 187 | 0.0 | 0.0 | 0.00 | 0.08 | 0.08 | 93 | 1007.9 |
| 20260509091544 | 23 | 187 | 0.0 | 0.0 | 0.00 | 0.08 | 0.08 | 93 | 1008.3 |
| 20260509090043 | 23 | 187 | 0.0 | 0.0 | 0.00 | 0.08 | 0.08 | 93 | 1008.3 |
| 20260509084540 | 23 | 187 | 0.0 | 0.0 | 0.00 | 0.08 | 0.08 | 93 | 1008.1 |
| 20260509083042 | 23 | 187 | 0.0 | 3.2 | 0.00 | 0.08 | 0.08 | 93 | 1008.0 |
| 20260509081545 | 23 | 186 | 1.6 | 6.4 | 0.00 | 0.08 | 0.08 | 93 | 1008.1 |
| 20260509080042 | 23 | 179 | 0.0 | 1.6 | 0.00 | 0.08 | 0.08 | 93 | 1008.2 |
| 20260509074507 | 23 | 177 | 0.0 | 3.2 | 0.00 | 0.08 | 0.08 | 93 | 1007.9 |
| 20260509073007 | 23 | 151 | 0.0 | 0.0 | 0.00 | 0.08 | 0.08 | 92 | 1008.2 |
| 20260509071502 | 23 | 151 | 0.0 | 0.0 | 0.00 | 0.08 | 0.08 | 92 | 1008.5 |
| 20260509070002 | 23 | 151 | 0.0 | 0.0 | 0.00 | 0.08 | 0.08 | 92 | 1008.5 |
| 20260509064502 | 23 | 151 | 0.0 | 0.0 | 0.00 | 0.08 | 0.08 | 92 | 1008.5 |
| 20260509063001 | 23 | 151 | 0.0 | 0.0 | 0.00 | 0.08 | 0.08 | 92 | 1008.6 |
| 20260509061559 | 23 | 151 | 0.0 | 0.0 | 0.00 | 0.08 | 0.08 | 91 | 1008.6 |
| 20260509060105 | 23 | 151 | 0.0 | 0.0 | 0.00 | 0.08 | 0.08 | 91 | 1008.7 |
| 20260509054603 | 23 | 151 | 0.0 | 0.0 | 0.00 | 0.08 | 0.08 | 91 | 1008.8 |
| 20260509053044 | 23 | 151 | 0.0 | 0.0 | 0.00 | 0.08 | 0.08 | 91 | 1008.9 |
| 20260509051538 | 23 | 151 | 0.0 | 0.0 | 0.00 | 0.08 | 0.08 | 91 | 1008.9 |
| 20260509050046 | 23 | 151 | 0.0 | 1.6 | 0.00 | 0.08 | 0.08 | 91 | 1008.9 |
| 20260509044541 | 23 | 151 | 0.0 | 1.6 | 0.00 | 0.08 | 0.08 | 91 | 1009.1 |